Time;durP1;ratioP1;P1;durP2;ratioP2;P2;SDS_P1;SDS_P2;PMS_P1;PMS_P2;Temp;Humidity;BMP_temperature;BMP_pressure;BME280_temperature;BME280_humidity;BME280_pressure;Samples;Min_cycle;Max_cycle;Signal;HPM_P1;HPM_P2
2021/12/09 04:02:32;;;;;;;2.93;1.60;;;5.60;83.40;;;;;;5223786;23;20500;-73
2021/12/09 04:04:59;;;;;;;3.23;2.07;;;5.60;83.30;;;;;;4994001;28;20437;-73
2021/12/09 04:07:26;;;;;;;6.30;1.77;;;5.60;83.30;;;;;;4994205;28;20488;-72
2021/12/09 04:09:52;;;;;;;2.53;1.47;;;5.60;83.10;;;;;;4994135;28;20456;-73
2021/12/09 04:12:20;;;;;;;3.87;2.07;;;5.50;82.90;;;;;;4994119;28;20477;-72
2021/12/09 04:14:47;;;;;;;4.00;1.80;;;5.60;83.10;;;;;;5019750;23;20501;-73
2021/12/09 04:17:13;;;;;;;3.87;2.00;;;5.60;82.70;;;;;;4994319;28;20449;-74
2021/12/09 04:19:47;;;;;;;4.70;2.07;;;5.70;82.60;;;;;;4994455;28;20944;-73
2021/12/09 04:22:15;;;;;;;7.20;2.87;;;5.70;82.50;;;;;;4994713;28;20438;-73
2021/12/09 04:24:41;;;;;;;4.30;1.60;;;5.80;82.10;;;;;;4993861;28;20481;-73
2021/12/09 04:27:08;;;;;;;4.07;1.67;;;5.70;82.10;;;;;;4994728;28;20531;-74
2021/12/09 04:29:35;;;;;;;4.60;1.70;;;5.70;82.20;;;;;;4994424;28;20941;-73
2021/12/09 04:32:01;;;;;;;5.53;2.80;;;5.80;81.80;;;;;;4994925;28;20794;-73
2021/12/09 04:34:30;;;;;;;3.53;1.70;;;5.80;81.80;;;;;;4994593;28;20465;-73
2021/12/09 04:36:58;;;;;;;3.17;1.90;;;5.90;81.90;;;;;;4994064;28;20445;-73
2021/12/09 04:39:25;;;;;;;3.03;1.57;;;5.90;81.70;;;;;;4993781;28;20508;-74
2021/12/09 04:41:53;;;;;;;3.10;1.50;;;5.90;81.60;;;;;;4993749;28;20458;-73
2021/12/09 04:44:21;;;;;;;4.63;1.63;;;5.90;81.70;;;;;;4993366;28;20984;-73
2021/12/09 04:46:47;;;;;;;2.97;1.40;;;6.00;81.90;;;;;;4993317;28;20456;-73
2021/12/09 04:49:14;;;;;;;4.33;1.83;;;6.00;81.70;;;;;;4993650;28;20444;-73
2021/12/09 04:51:41;;;;;;;3.30;1.40;;;6.00;81.60;;;;;;4993662;28;20441;-73
2021/12/09 04:54:09;;;;;;;4.73;1.80;;;6.00;81.50;;;;;;4993239;28;21012;-73
2021/12/09 04:56:36;;;;;;;3.53;1.47;;;6.00;81.60;;;;;;4996677;28;20452;-73
2021/12/09 04:59:04;;;;;;;3.60;1.73;;;5.90;81.40;;;;;;4997125;28;20923;-73
2021/12/09 05:01:31;;;;;;;3.30;1.60;;;5.80;81.80;;;;;;4997382;28;20503;-73
2021/12/09 05:03:57;;;;;;;4.73;1.73;;;5.70;82.20;;;;;;4996956;28;20884;-73
2021/12/09 05:06:24;;;;;;;5.00;2.20;;;5.70;82.20;;;;;;4997284;28;20531;-73
2021/12/09 05:08:51;;;;;;;4.53;1.93;;;5.70;82.30;;;;;;4997149;28;20599;-73
2021/12/09 05:11:32;;;;;;;3.70;2.17;;;5.70;82.60;;;;;;4997224;28;20819;-73
2021/12/09 05:13:59;;;;;;;3.40;1.70;;;5.80;82.60;;;;;;4996853;28;20563;-74
2021/12/09 05:16:26;;;;;;;2.97;1.33;;;5.80;82.50;;;;;;4997099;28;20862;-73
2021/12/09 05:18:58;;;;;;;3.03;1.63;;;5.90;82.40;;;;;;4997094;28;20499;-73
2021/12/09 05:21:27;;;;;;;5.43;1.63;;;5.90;82.10;;;;;;4997049;28;20473;-73
2021/12/09 05:23:53;;;;;;;4.70;1.90;;;6.00;82.00;;;;;;4996859;28;20567;-73
2021/12/09 05:26:25;;;;;;;4.37;1.63;;;6.00;81.60;;;;;;4996554;28;20875;-73
2021/12/09 05:28:56;;;;;;;3.13;1.70;;;6.00;81.30;;;;;;4996825;28;20604;-73
2021/12/09 05:34:07;;;;;;;3.70;1.53;;;5.80;81.80;;;;;;4996735;28;20444;-73
2021/12/09 05:36:34;;;;;;;4.00;1.47;;;5.80;81.80;;;;;;4996719;28;20452;-73
2021/12/09 05:39:01;;;;;;;2.63;1.43;;;5.70;81.90;;;;;;4996699;28;20450;-73
2021/12/09 05:41:30;;;;;;;4.00;2.13;;;5.70;82.00;;;;;;4996636;28;20449;-73
2021/12/09 05:43:57;;;;;;;4.23;1.30;;;5.80;81.80;;;;;;4996502;28;20469;-73
2021/12/09 05:46:24;;;;;;;5.23;2.07;;;5.80;81.80;;;;;;4996523;28;20449;-73
2021/12/09 05:48:50;;;;;;;2.93;1.90;;;5.80;81.90;;;;;;4996153;28;20911;-73
2021/12/09 05:51:17;;;;;;;3.17;1.63;;;5.90;81.90;;;;;;4996514;28;20444;-73
2021/12/09 05:53:44;;;;;;;3.37;1.60;;;5.80;81.70;;;;;;4996079;28;20877;-73
2021/12/09 05:56:10;;;;;;;3.20;1.97;;;5.80;81.90;;;;;;4996384;28;20441;-72
2021/12/09 05:58:38;;;;;;;3.73;1.57;;;5.80;82.00;;;;;;4996563;28;20449;-73
2021/12/09 06:01:05;;;;;;;3.60;2.20;;;5.90;81.90;;;;;;4996355;28;20445;-73
2021/12/09 06:03:33;;;;;;;2.80;1.37;;;5.90;81.50;;;;;;4996239;28;20535;-73
2021/12/09 06:06:00;;;;;;;2.90;1.60;;;5.90;81.70;;;;;;4996020;28;20540;-73
2021/12/09 06:08:27;;;;;;;5.73;2.23;;;5.80;81.70;;;;;;4995854;28;21003;-73
2021/12/09 06:10:54;;;;;;;3.90;2.30;;;5.80;81.70;;;;;;4995871;28;20948;-73
2021/12/09 06:13:22;;;;;;;3.90;2.47;;;5.70;81.70;;;;;;4995975;28;20823;-73
2021/12/09 06:15:50;;;;;;;3.03;1.57;;;5.70;81.80;;;;;;4995924;28;20873;-74
2021/12/09 06:18:17;;;;;;;2.63;1.20;;;5.70;81.90;;;;;;4996172;28;20442;-74
2021/12/09 06:20:44;;;;;;;3.20;1.40;;;5.60;81.90;;;;;;4996179;28;20449;-74
2021/12/09 06:23:11;;;;;;;3.20;1.77;;;5.60;82.00;;;;;;4995965;28;20449;-74
2021/12/09 06:25:37;;;;;;;2.83;1.40;;;5.50;82.20;;;;;;4995934;28;20460;-73
2021/12/09 06:28:04;;;;;;;2.83;1.60;;;5.50;81.70;;;;;;4995531;28;20854;-73
2021/12/09 06:30:32;;;;;;;4.30;1.60;;;5.50;81.70;;;;;;4995816;28;20461;-74
2021/12/09 06:33:01;;;;;;;3.67;1.30;;;5.50;81.80;;;;;;4995816;28;20449;-74
2021/12/09 06:35:28;;;;;;;4.47;1.40;;;5.60;81.60;;;;;;4995702;28;20481;-74
2021/12/09 06:37:55;;;;;;;4.00;1.70;;;5.60;81.30;;;;;;4995681;28;20472;-74
2021/12/09 06:40:23;;;;;;;4.00;1.70;;;5.70;81.00;;;;;;4995559;28;20449;-74
2021/12/09 06:42:51;;;;;;;3.13;2.00;;;5.70;80.80;;;;;;4995577;28;20445;-74
2021/12/09 06:45:20;;;;;;;4.60;1.60;;;5.70;80.70;;;;;;4995315;28;20531;-74
2021/12/09 06:47:48;;;;;;;4.43;2.70;;;5.70;80.50;;;;;;4995255;28;20605;-74
2021/12/09 06:50:18;;;;;;;3.20;1.67;;;5.80;80.30;;;;;;4995309;28;20456;-74
2021/12/09 06:52:45;;;;;;;4.93;2.30;;;5.70;80.40;;;;;;4995451;28;20442;-73
2021/12/09 06:55:13;;;;;;;2.90;1.20;;;5.70;80.20;;;;;;4995245;28;20473;-73
2021/12/09 06:57:42;;;;;;;4.30;1.77;;;5.60;80.30;;;;;;4995274;28;20453;-74
2021/12/09 07:00:12;;;;;;;2.90;1.70;;;5.60;80.60;;;;;;4995190;28;20500;-73
2021/12/09 07:02:38;;;;;;;4.07;1.90;;;5.60;80.70;;;;;;4994926;28;20952;-74
2021/12/09 07:05:08;;;;;;;3.60;1.53;;;5.50;80.70;;;;;;4994833;28;20477;-73
2021/12/09 07:07:37;;;;;;;2.90;1.80;;;5.50;80.90;;;;;;4994779;28;20454;-73
2021/12/09 07:10:06;;;;;;;3.13;1.30;;;5.50;80.90;;;;;;4995605;28;20457;-74
2021/12/09 07:12:34;;;;;;;4.03;1.70;;;5.50;81.00;;;;;;4995000;28;20456;-73
2021/12/09 07:15:01;;;;;;;3.43;1.57;;;5.60;80.70;;;;;;4994686;28;20528;-73
2021/12/09 07:17:28;;;;;;;3.13;1.90;;;5.60;80.70;;;;;;4994287;28;20453;-74
2021/12/09 07:19:54;;;;;;;3.33;1.50;;;5.70;80.70;;;;;;4994689;28;20499;-73
2021/12/09 07:22:21;;;;;;;3.20;1.60;;;5.70;80.50;;;;;;4994658;28;20445;-73
2021/12/09 07:24:49;;;;;;;3.07;1.63;;;5.80;80.50;;;;;;4994553;28;20616;-72
2021/12/09 07:27:16;;;;;;;4.67;1.90;;;5.80;80.60;;;;;;4994607;28;20440;-74
2021/12/09 07:29:43;;;;;;;3.20;1.93;;;5.90;80.50;;;;;;4994639;28;20531;-74
2021/12/09 07:32:10;;;;;;;4.20;1.70;;;5.90;80.40;;;;;;4994351;28;20540;-74
2021/12/09 07:34:37;;;;;;;3.90;2.03;;;5.90;80.40;;;;;;4994444;28;20524;-74
2021/12/09 07:37:05;;;;;;;3.67;1.60;;;6.00;80.30;;;;;;4994392;28;20532;-74
2021/12/09 07:39:33;;;;;;;3.67;2.23;;;5.90;80.20;;;;;;4994107;28;20963;-73
2021/12/09 07:42:01;;;;;;;4.30;2.13;;;5.90;80.30;;;;;;4994337;28;20523;-73
2021/12/09 07:44:28;;;;;;;4.40;2.27;;;5.90;80.50;;;;;;4994902;28;20991;-73
2021/12/09 07:46:56;;;;;;;2.87;1.50;;;5.90;80.50;;;;;;4995347;28;20448;-73
2021/12/09 07:49:23;;;;;;;2.80;1.70;;;5.90;80.40;;;;;;4995205;28;20527;-73
2021/12/09 07:51:50;;;;;;;3.73;1.93;;;5.90;80.20;;;;;;4994932;28;20519;-73
2021/12/09 07:54:18;;;;;;;3.60;2.00;;;6.00;80.50;;;;;;4994621;28;20468;-73
2021/12/09 07:56:45;;;;;;;3.23;1.70;;;6.00;80.50;;;;;;4994313;28;20449;-73
2021/12/09 07:59:14;;;;;;;4.93;1.77;;;5.70;80.20;;;;;;4994370;28;20475;-74
2021/12/09 08:01:42;;;;;;;3.20;1.50;;;5.40;81.50;;;;;;4994150;28;20468;-72
2021/12/09 08:04:10;;;;;;;3.07;1.57;;;5.30;81.80;;;;;;4994128;28;20469;-73
2021/12/09 08:06:37;;;;;;;6.00;2.07;;;5.00;82.40;;;;;;4994094;28;20449;-72
2021/12/09 08:09:04;;;;;;;4.80;1.70;;;4.80;83.70;;;;;;4994100;28;20530;-73
2021/12/09 08:11:33;;;;;;;2.97;1.90;;;4.70;83.80;;;;;;4994142;28;20448;-73
2021/12/09 08:14:00;;;;;;;4.20;2.20;;;4.60;84.60;;;;;;4993774;28;20485;-73
2021/12/09 08:16:30;;;;;;;4.10;1.77;;;4.50;84.90;;;;;;4993996;28;20449;-73
2021/12/09 08:18:57;;;;;;;3.20;1.60;;;4.60;85.00;;;;;;4994099;28;20442;-73
2021/12/09 08:21:26;;;;;;;2.97;1.73;;;4.70;85.00;;;;;;4994673;28;20452;-74
2021/12/09 08:23:52;;;;;;;3.47;1.90;;;4.70;84.50;;;;;;4993905;28;20496;-73
2021/12/09 08:26:20;;;;;;;3.57;2.00;;;4.70;84.60;;;;;;4994090;28;20455;-73
2021/12/09 08:28:47;;;;;;;3.80;1.90;;;4.90;84.50;;;;;;4993880;28;20488;-72
2021/12/09 08:31:13;;;;;;;4.70;2.10;;;4.80;84.30;;;;;;4996367;28;20952;-73
2021/12/09 08:33:42;;;;;;;3.67;1.63;;;4.60;83.80;;;;;;4997720;28;20480;-73
2021/12/09 08:36:09;;;;;;;3.70;2.30;;;4.50;85.20;;;;;;4997868;28;20456;-73
2021/12/09 08:38:37;;;;;;;4.03;2.03;;;4.50;85.20;;;;;;4997856;28;20465;-72
2021/12/09 08:41:04;;;;;;;3.30;1.90;;;4.40;86.10;;;;;;4997943;28;20461;-73
2021/12/09 08:43:31;;;;;;;4.67;2.87;;;4.50;86.10;;;;;;4997772;28;20568;-72
2021/12/09 08:45:59;;;;;;;4.17;2.30;;;4.50;85.80;;;;;;4997716;28;20529;-73
2021/12/09 08:48:27;;;;;;;4.27;2.70;;;4.30;86.20;;;;;;4997327;28;21017;-74
2021/12/09 08:50:55;;;;;;;3.10;2.00;;;4.50;86.20;;;;;;4997656;28;20476;-73
2021/12/09 08:53:24;;;;;;;4.50;2.17;;;4.70;86.60;;;;;;4997475;28;20477;-72
2021/12/09 08:55:50;;;;;;;3.13;1.90;;;4.70;85.30;;;;;;4997217;28;20998;-73
2021/12/09 08:58:18;;;;;;;3.43;1.63;;;4.50;86.00;;;;;;4997441;28;20455;-73
2021/12/09 09:00:46;;;;;;;2.90;1.53;;;4.50;85.70;;;;;;4997891;28;20441;-72
2021/12/09 09:03:14;;;;;;;3.57;2.07;;;4.50;86.50;;;;;;4997755;28;20472;-71
2021/12/09 09:05:43;;;;;;;3.10;1.73;;;4.70;86.10;;;;;;4997125;28;20452;-71
2021/12/09 09:08:11;;;;;;;3.10;1.70;;;4.60;85.20;;;;;;4997322;28;20445;-71
2021/12/09 09:10:41;;;;;;;3.20;1.83;;;4.70;86.20;;;;;;4997039;28;20971;-72
2021/12/09 09:13:08;;;;;;;3.13;1.90;;;4.70;86.30;;;;;;4997172;28;20433;-72
2021/12/09 09:15:36;;;;;;;3.17;1.93;;;4.70;85.80;;;;;;4996999;28;20940;-73
2021/12/09 09:18:05;;;;;;;5.30;2.40;;;4.70;86.00;;;;;;4997330;28;20457;-72
2021/12/09 09:20:34;;;;;;;4.60;2.23;;;4.70;86.30;;;;;;4997917;28;20448;-72
2021/12/09 09:23:01;;;;;;;3.00;1.93;;;4.70;86.70;;;;;;4996797;28;20496;-72
2021/12/09 09:25:30;;;;;;;6.60;2.10;;;4.80;86.10;;;;;;4997001;28;20444;-73
2021/12/09 09:27:58;;;;;;;7.20;3.50;;;4.70;85.40;;;;;;4996725;28;20941;-72
2021/12/09 09:30:27;;;;;;;3.97;1.87;;;4.60;86.60;;;;;;4996892;28;20867;-73
2021/12/09 09:32:55;;;;;;;3.10;1.60;;;4.70;86.70;;;;;;4996919;28;20543;-70
2021/12/09 09:35:21;;;;;;;3.87;2.00;;;4.70;86.90;;;;;;4996702;28;20480;-72
2021/12/09 09:37:48;;;;;;;2.97;1.83;;;4.90;87.00;;;;;;4996773;28;20455;-72
2021/12/09 09:40:27;;;;;;;3.77;1.73;;;4.90;86.30;;;;;;4996844;28;20460;-72
2021/12/09 09:43:00;;;;;;;3.73;2.40;;;5.00;86.00;;;;;;4996286;28;20917;-72
2021/12/09 09:45:28;;;;;;;3.40;1.63;;;5.20;86.80;;;;;;4997422;28;20461;-72
2021/12/09 09:47:55;;;;;;;3.20;1.90;;;5.20;85.20;;;;;;4996655;28;20445;-73
2021/12/09 09:50:23;;;;;;;3.13;1.83;;;5.00;86.00;;;;;;4996653;28;20512;-73
2021/12/09 09:52:49;;;;;;;3.50;1.57;;;5.10;86.90;;;;;;4996384;28;20457;-73
2021/12/09 09:55:21;;;;;;;4.30;1.60;;;5.10;85.30;;;;;;4996082;28;20472;-73
2021/12/09 09:57:49;;;;;;;2.70;1.40;;;5.00;85.60;;;;;;4996539;28;20484;-72
2021/12/09 10:00:19;;;;;;;3.07;2.00;;;4.90;86.20;;;;;;4996459;28;20441;-73
2021/12/09 10:02:52;;;;;;;3.00;1.80;;;4.80;86.50;;;;;;4996431;28;20449;-72
2021/12/09 10:05:22;;;;;;;4.37;2.00;;;4.90;86.70;;;;;;4996350;28;20509;-72
2021/12/09 10:07:50;;;;;;;3.80;2.07;;;5.00;86.90;;;;;;4995924;28;20965;-72
2021/12/09 10:10:17;;;;;;;3.30;2.40;;;5.00;87.20;;;;;;4996062;28;20540;-72
2021/12/09 10:12:56;;;;;;;3.07;1.90;;;5.10;86.60;;;;;;4995775;28;20449;-73
2021/12/09 10:15:44;;;;;;;3.50;2.30;;;5.10;86.40;;;;;;5119013;23;20559;-74
2021/12/09 10:18:13;;;;;;;3.57;1.97;;;5.00;86.80;;;;;;4996440;28;20437;-75
2021/12/09 10:20:50;;;;;;;4.27;1.70;;;5.10;87.50;;;;;;4996289;28;20445;-75
2021/12/09 10:23:33;;;;;;;2.90;1.80;;;5.30;87.20;;;;;;4995950;28;20901;-74
2021/12/09 10:26:19;;;;;;;3.10;1.90;;;5.40;85.80;;;;;;4976570;28;20437;-74
2021/12/09 10:28:51;;;;;;;4.00;2.37;;;5.30;85.80;;;;;;4976610;28;20446;-74
2021/12/09 10:31:24;;;;;;;3.00;1.87;;;5.40;86.20;;;;;;4976512;28;20489;-74
2021/12/09 10:34:19;;;;;;;4.37;1.97;;;5.50;86.40;;;;;;4976469;28;20478;-74
2021/12/09 10:36:53;;;;;;;3.30;2.00;;;5.70;85.90;;;;;;4974828;28;20557;-75
2021/12/09 10:39:24;;;;;;;3.37;1.40;;;5.80;84.40;;;;;;4976332;28;20422;-74
2021/12/09 10:41:52;;;;;;;3.70;1.60;;;5.70;83.60;;;;;;4976255;28;20426;-74
2021/12/09 10:44:30;;;;;;;3.13;1.60;;;5.80;83.60;;;;;;4976336;28;20497;-74
2021/12/09 10:47:08;;;;;;;2.60;1.50;;;5.90;84.00;;;;;;4976281;28;20430;-74
2021/12/09 10:49:41;;;;;;;3.67;1.73;;;6.20;83.50;;;;;;4976049;28;20557;-75
2021/12/09 10:52:26;;;;;;;2.97;1.67;;;6.10;82.80;;;;;;4975501;28;20899;-73
2021/12/09 10:54:54;;;;;;;2.97;1.40;;;6.20;82.80;;;;;;4975831;28;20895;-74
2021/12/09 10:57:25;;;;;;;2.90;1.70;;;6.00;82.40;;;;;;4975948;28;20446;-74
2021/12/09 10:59:52;;;;;;;3.33;1.70;;;6.00;82.50;;;;;;4975939;28;20493;-74
2021/12/09 11:02:20;;;;;;;2.60;1.33;;;6.00;82.60;;;;;;4975908;28;20453;-74
2021/12/09 11:05:06;;;;;;;3.60;1.60;;;6.00;83.00;;;;;;4975577;28;20978;-75
2021/12/09 11:07:34;;;;;;;3.03;1.60;;;6.20;83.20;;;;;;4975896;28;20434;-75
2021/12/09 11:10:20;;;;;;;2.70;1.33;;;6.30;83.30;;;;;;4975747;28;20500;-75
2021/12/09 11:12:55;;;;;;;3.03;1.50;;;6.30;82.20;;;;;;4976223;28;20445;-75
2021/12/09 11:15:23;;;;;;;3.17;1.37;;;6.50;82.00;;;;;;4975455;28;20485;-75
2021/12/09 11:17:53;;;;;;;3.07;1.30;;;6.50;81.20;;;;;;4975708;28;20508;-72
2021/12/09 11:20:42;;;;;;;5.67;1.97;;;6.30;81.50;;;;;;4975657;28;20490;-72
2021/12/09 11:23:27;;;;;;;3.27;1.70;;;6.20;81.20;;;;;;4975105;28;20964;-72
2021/12/09 11:25:58;;;;;;;2.70;1.40;;;6.10;82.00;;;;;;4975273;28;20434;-72
2021/12/09 11:28:26;;;;;;;4.70;1.40;;;6.10;81.80;;;;;;4975680;28;20438;-73
2021/12/09 11:31:11;;;;;;;4.37;1.50;;;6.00;82.80;;;;;;4975437;28;20521;-72
2021/12/09 11:33:42;;;;;;;3.80;1.57;;;6.00;82.40;;;;;;4976660;28;20438;-72
2021/12/09 11:36:15;;;;;;;3.37;1.33;;;6.20;82.50;;;;;;4975925;28;20435;-73
2021/12/09 11:39:09;;;;;;;3.33;1.33;;;6.00;82.10;;;;;;4975381;28;20779;-73
2021/12/09 11:41:39;;;;;;;2.70;1.37;;;6.10;83.20;;;;;;4968228;28;20458;-75
2021/12/09 11:44:08;;;;;;;3.03;1.60;;;6.10;82.50;;;;;;4976417;28;20846;-74
2021/12/09 11:46:36;;;;;;;2.67;1.33;;;6.20;82.70;;;;;;4976448;28;20442;-75
2021/12/09 11:49:05;;;;;;;3.13;1.50;;;6.20;82.20;;;;;;4977373;28;20457;-72
2021/12/09 11:51:31;;;;;;;2.90;1.43;;;6.00;82.50;;;;;;4977403;28;20512;-72
2021/12/09 11:54:00;;;;;;;2.43;1.17;;;6.10;83.00;;;;;;4976284;28;20949;-72
2021/12/09 11:56:35;;;;;;;2.67;1.37;;;5.90;83.00;;;;;;4976626;28;20481;-72
2021/12/09 12:06:36;;;;;;;3.47;1.23;;;6.10;83.80;;;;;;4977041;28;20438;-74
2021/12/09 12:11:38;;;;;;;3.13;1.40;;;7.00;80.70;;;;;;4975144;28;20520;-74
2021/12/09 12:14:14;;;;;;;3.00;1.33;;;7.10;79.20;;;;;;4975213;28;20516;-74
2021/12/09 12:17:01;;;;;;;3.37;1.43;;;6.60;79.00;;;;;;4975110;28;20456;-74
2021/12/09 12:20:12;;;;;;;6.30;1.53;;;6.40;80.00;;;;;;4975729;28;20521;-74
2021/12/09 12:26:34;;;;;;;2.80;1.43;;;6.60;81.10;;;;;;4972197;28;20884;-74
2021/12/09 12:29:26;;;;;;;4.27;1.83;;;7.30;80.20;;;;;;4974918;28;20544;-74
2021/12/09 12:32:13;;;;;;;2.60;1.20;;;8.80;76.30;;;;;;4974974;28;20449;-74
2021/12/09 12:35:08;;;;;;;3.40;1.30;;;9.00;71.40;;;;;;4974499;28;20474;-74
2021/12/09 12:37:53;;;;;;;3.57;1.43;;;8.80;72.50;;;;;;4974852;28;20449;-74
2021/12/09 12:40:22;;;;;;;4.00;1.57;;;8.30;72.80;;;;;;4975105;28;20886;-73
2021/12/09 12:42:55;;;;;;;3.53;1.70;;;7.90;73.80;;;;;;4974492;28;20864;-74
2021/12/09 12:45:49;;;;;;;2.90;1.60;;;7.70;74.00;;;;;;4974389;28;20544;-74
2021/12/09 12:48:48;;;;;;;3.13;1.43;;;7.70;74.60;;;;;;4974130;28;20805;-74
2021/12/09 12:51:20;;;;;;;2.80;1.10;;;7.80;75.90;;;;;;4974796;28;20889;-74
2021/12/09 12:53:50;;;;;;;3.03;1.37;;;8.60;75.20;;;;;;4975066;28;20473;-74
2021/12/09 12:56:18;;;;;;;2.73;1.30;;;9.70;71.20;;;;;;4974590;28;20548;-74
2021/12/09 12:59:21;;;;;;;4.13;1.40;;;11.10;67.80;;;;;;4974585;28;20450;-74
2021/12/09 13:02:27;;;;;;;3.30;1.30;;;13.00;62.90;;;;;;4975070;28;20504;-75
2021/12/09 13:05:02;;;;;;;3.20;1.07;;;15.10;56.30;;;;;;4972781;28;20482;-75
2021/12/09 13:07:42;;;;;;;2.67;1.13;;;16.70;51.50;;;;;;4974784;28;20436;-75
2021/12/09 13:10:31;;;;;;;2.70;1.10;;;17.40;52.00;;;;;;4974029;28;21033;-75
2021/12/09 13:13:16;;;;;;;3.37;1.10;;;17.80;47.80;;;;;;4974630;28;20454;-75
2021/12/09 13:16:10;;;;;;;3.40;1.40;;;18.40;49.50;;;;;;4974112;28;20493;-75
2021/12/09 13:18:53;;;;;;;3.37;1.20;;;17.40;48.60;;;;;;4978108;28;20474;-74
2021/12/09 13:21:57;;;;;;;2.90;1.33;;;16.30;50.10;;;;;;4977712;28;21023;-74
2021/12/09 13:24:33;;;;;;;3.33;1.40;;;14.50;54.50;;;;;;4977606;28;21001;-74
2021/12/09 13:30:35;;;;;;;3.50;1.60;;;12.20;58.70;;;;;;4942595;28;20842;-74
2021/12/09 13:35:59;;;;;;;3.53;1.10;;;10.80;63.60;;;;;;4978139;28;20461;-74
2021/12/09 13:47:17;;;;;;;4.30;2.60;;;9.10;68.80;;;;;;4977938;28;20414;-74
2021/12/09 13:49:52;;;;;;;3.83;1.63;;;9.10;70.20;;;;;;4977777;28;20450;-74
2021/12/09 13:55:11;;;;;;;2.77;1.20;;;8.80;70.60;;;;;;4976942;28;20450;-74
2021/12/09 13:57:40;;;;;;;2.50;1.20;;;8.90;71.00;;;;;;4977119;28;20842;-74
2021/12/09 14:00:13;;;;;;;3.77;0.97;;;9.00;70.70;;;;;;4977499;28;20497;-74
2021/12/09 14:02:41;;;;;;;3.40;1.30;;;8.90;70.30;;;;;;4977304;28;20430;-74
2021/12/09 14:05:14;;;;;;;3.93;1.60;;;8.90;70.50;;;;;;4977033;28;21050;-74
2021/12/09 14:07:48;;;;;;;4.87;1.33;;;9.00;70.60;;;;;;4977014;28;20968;-74
2021/12/09 14:10:16;;;;;;;2.90;1.57;;;9.20;71.00;;;;;;4977358;28;20477;-74
2021/12/09 14:12:51;;;;;;;4.47;1.93;;;9.60;67.70;;;;;;4977220;28;20438;-74
2021/12/09 14:15:34;;;;;;;4.80;1.53;;;9.90;66.20;;;;;;4976877;28;20988;-74
2021/12/09 14:18:06;;;;;;;3.13;1.40;;;10.00;64.30;;;;;;4976996;28;20549;-73
2021/12/09 14:20:32;;;;;;;3.27;1.20;;;9.50;65.50;;;;;;4976872;28;20913;-74
2021/12/09 14:22:59;;;;;;;4.10;1.77;;;9.40;67.00;;;;;;4977305;28;20512;-74
2021/12/09 14:25:31;;;;;;;4.40;1.50;;;8.50;67.40;;;;;;4976847;28;20532;-73
2021/12/09 14:27:59;;;;;;;3.50;1.30;;;8.10;70.10;;;;;;4977399;28;20465;-73
2021/12/09 14:30:30;;;;;;;4.87;1.70;;;8.00;70.00;;;;;;4977655;28;20485;-73
2021/12/09 14:32:59;;;;;;;4.83;1.30;;;7.80;70.70;;;;;;4976952;28;20442;-74
2021/12/09 14:35:30;;;;;;;3.37;1.47;;;7.70;71.40;;;;;;4976610;28;20474;-74
2021/12/09 14:37:56;;;;;;;4.10;1.30;;;7.30;71.20;;;;;;4977152;28;20775;-73
2021/12/09 14:40:27;;;;;;;3.13;1.10;;;7.10;71.90;;;;;;4976474;28;20446;-72
2021/12/09 14:42:56;;;;;;;3.10;1.63;;;6.90;72.70;;;;;;4976928;28;20453;-72
2021/12/09 14:45:28;;;;;;;4.07;1.10;;;6.80;73.00;;;;;;4976461;28;20473;-72
2021/12/09 14:48:01;;;;;;;5.63;1.60;;;6.60;74.40;;;;;;4976132;28;20446;-72
2021/12/09 14:50:33;;;;;;;3.60;1.30;;;6.50;74.40;;;;;;4976692;28;20827;-72
2021/12/09 14:53:00;;;;;;;3.43;1.20;;;6.50;75.10;;;;;;4976267;28;20473;-71
2021/12/09 14:55:29;;;;;;;3.10;1.20;;;6.30;76.20;;;;;;4976245;28;20478;-72
2021/12/09 14:58:03;;;;;;;2.70;1.40;;;6.30;76.70;;;;;;4976158;28;20493;-72
2021/12/09 15:00:41;;;;;;;2.90;1.20;;;6.50;76.60;;;;;;4976254;28;20538;-72
2021/12/09 15:03:11;;;;;;;3.23;1.23;;;6.60;76.70;;;;;;4976064;28;20808;-72
2021/12/09 15:05:54;;;;;;;5.77;1.70;;;6.60;76.50;;;;;;4975469;28;20472;-72
2021/12/09 15:08:22;;;;;;;3.43;1.57;;;6.50;77.40;;;;;;4975978;28;20446;-72
2021/12/09 15:10:52;;;;;;;6.90;1.63;;;6.60;77.10;;;;;;4975765;28;20490;-72
2021/12/09 15:13:21;;;;;;;3.20;1.70;;;6.40;77.40;;;;;;4975908;28;20525;-75
2021/12/09 15:16:02;;;;;;;2.70;1.30;;;6.30;77.90;;;;;;4975123;28;20537;-74
2021/12/09 15:18:30;;;;;;;3.03;1.27;;;6.40;77.60;;;;;;4975209;28;20996;-75
2021/12/09 15:21:08;;;;;;;5.03;1.70;;;6.10;77.80;;;;;;4975668;28;20449;-74
2021/12/09 15:23:43;;;;;;;3.67;1.27;;;5.80;79.00;;;;;;4975612;28;20470;-73
2021/12/09 15:26:20;;;;;;;4.73;1.43;;;5.50;80.20;;;;;;4975266;28;20993;-74
2021/12/09 15:28:47;;;;;;;3.10;1.33;;;5.60;80.30;;;;;;4975569;28;20812;-74
2021/12/09 15:31:23;;;;;;;4.27;1.53;;;5.60;80.50;;;;;;4974849;28;20536;-74
2021/12/09 15:33:52;;;;;;;3.90;1.57;;;5.80;80.30;;;;;;4975197;28;20469;-74
2021/12/09 15:36:24;;;;;;;3.17;1.63;;;5.80;79.80;;;;;;4975063;28;20841;-75
2021/12/09 15:38:59;;;;;;;3.73;1.50;;;5.80;80.10;;;;;;4975057;28;20509;-74
2021/12/09 15:41:28;;;;;;;5.40;1.60;;;5.80;80.20;;;;;;4975347;28;20429;-76
2021/12/09 15:43:57;;;;;;;3.37;1.40;;;5.70;79.60;;;;;;4975220;28;20529;-75
2021/12/09 15:46:26;;;;;;;3.00;1.57;;;5.60;80.20;;;;;;4975206;28;20458;-75
2021/12/09 15:48:53;;;;;;;3.70;0.90;;;5.60;80.50;;;;;;4975238;28;20449;-75
2021/12/09 15:51:25;;;;;;;3.77;1.40;;;5.60;80.60;;;;;;4975154;28;20532;-75
2021/12/09 15:53:54;;;;;;;3.13;1.60;;;5.60;80.30;;;;;;4975005;28;20521;-75
2021/12/09 15:56:24;;;;;;;2.50;1.30;;;5.60;81.00;;;;;;4975038;28;20528;-75
2021/12/09 15:58:51;;;;;;;4.43;2.07;;;5.60;80.60;;;;;;4974939;28;20509;-75
2021/12/09 16:01:21;;;;;;;4.07;2.40;;;5.60;80.70;;;;;;4974943;28;20497;-75
2021/12/09 16:03:49;;;;;;;4.03;1.80;;;5.60;80.10;;;;;;4975073;28;20528;-75
2021/12/09 16:06:16;;;;;;;5.00;1.73;;;5.70;80.40;;;;;;4975009;28;20505;-75
2021/12/09 16:08:43;;;;;;;3.90;2.17;;;5.80;80.00;;;;;;4974668;28;20449;-75
2021/12/09 16:11:11;;;;;;;3.20;1.47;;;5.80;80.00;;;;;;4974764;28;20478;-75
2021/12/09 16:13:38;;;;;;;2.50;1.20;;;5.90;79.50;;;;;;4974626;28;20500;-74
2021/12/09 16:16:11;;;;;;;4.70;1.97;;;5.70;79.90;;;;;;4975524;28;20476;-75
2021/12/09 16:18:40;;;;;;;3.50;1.27;;;5.70;79.60;;;;;;4974926;28;20438;-74
2021/12/09 16:21:12;;;;;;;3.33;1.30;;;5.60;79.90;;;;;;4974548;28;20930;-75
2021/12/09 16:23:41;;;;;;;3.33;1.70;;;5.60;80.30;;;;;;4974993;28;20439;-74
2021/12/09 16:26:08;;;;;;;3.00;1.50;;;5.50;80.20;;;;;;4974646;28;20453;-75
2021/12/09 16:28:37;;;;;;;3.63;1.47;;;5.40;80.80;;;;;;4974202;28;20961;-75
2021/12/09 16:31:05;;;;;;;4.50;2.17;;;5.50;80.70;;;;;;4974586;28;20493;-74
2021/12/09 16:33:33;;;;;;;3.33;1.33;;;5.50;80.30;;;;;;4974507;28;20454;-75
2021/12/09 16:36:00;;;;;;;3.33;1.77;;;5.50;80.60;;;;;;4975059;28;20481;-75
2021/12/09 16:38:31;;;;;;;3.27;1.20;;;5.30;80.50;;;;;;4974659;28;20476;-75
2021/12/09 16:40:58;;;;;;;4.23;1.40;;;5.10;81.50;;;;;;4974719;28;20441;-74
2021/12/09 16:43:28;;;;;;;3.00;1.73;;;5.20;81.30;;;;;;4974521;28;20450;-75
2021/12/09 16:45:56;;;;;;;3.37;1.07;;;5.10;81.30;;;;;;4974225;28;20449;-75
2021/12/09 16:48:23;;;;;;;2.90;1.30;;;5.10;81.70;;;;;;4974463;28;20915;-75
2021/12/09 16:50:51;;;;;;;2.93;1.40;;;5.00;81.30;;;;;;4974812;28;20512;-75
2021/12/09 16:53:21;;;;;;;3.33;1.67;;;4.90;81.90;;;;;;4978452;28;20486;-75
2021/12/09 16:55:57;;;;;;;3.50;1.50;;;4.90;82.00;;;;;;4978212;28;20477;-75
2021/12/09 16:58:31;;;;;;;3.10;1.60;;;5.00;82.20;;;;;;4978616;28;20442;-74
2021/12/09 17:00:58;;;;;;;3.37;1.57;;;4.90;81.60;;;;;;4979008;28;20438;-75
2021/12/09 17:03:24;;;;;;;3.20;1.27;;;4.90;81.60;;;;;;4979087;28;20453;-75
2021/12/09 17:05:51;;;;;;;3.60;1.37;;;4.80;81.80;;;;;;4978690;28;20564;-75
2021/12/09 17:08:18;;;;;;;3.23;1.40;;;4.90;81.40;;;;;;4978240;28;20449;-75
2021/12/09 17:10:45;;;;;;;4.30;1.60;;;5.10;81.70;;;;;;4978121;28;20944;-75
2021/12/09 17:13:13;;;;;;;3.57;1.73;;;5.20;80.70;;;;;;4978338;28;20446;-75
2021/12/09 17:15:42;;;;;;;3.40;1.90;;;5.10;80.70;;;;;;4977763;28;20481;-76
2021/12/09 17:18:09;;;;;;;7.23;1.50;;;5.10;79.90;;;;;;4978407;28;20464;-75
2021/12/09 17:20:36;;;;;;;6.23;1.97;;;4.90;80.70;;;;;;4978170;28;20454;-75
2021/12/09 17:23:05;;;;;;;6.30;2.03;;;5.00;81.00;;;;;;4978148;28;20481;-75
2021/12/09 17:25:32;;;;;;;3.03;1.40;;;5.10;80.70;;;;;;4977597;28;21019;-75
2021/12/09 17:28:04;;;;;;;4.50;1.77;;;5.10;80.70;;;;;;4978014;28;20454;-75
2021/12/09 17:30:33;;;;;;;5.70;1.57;;;5.10;80.20;;;;;;4978058;28;20434;-75
2021/12/09 17:33:01;;;;;;;3.37;1.77;;;5.00;79.30;;;;;;4977869;28;20552;-75
2021/12/09 17:35:29;;;;;;;4.07;1.70;;;5.00;80.40;;;;;;4977867;28;20466;-75
2021/12/09 17:37:57;;;;;;;3.70;1.20;;;5.20;79.90;;;;;;4977916;28;20454;-75
2021/12/09 17:40:25;;;;;;;3.47;1.30;;;5.10;79.50;;;;;;4977791;28;20450;-75
2021/12/09 17:42:52;;;;;;;3.90;1.43;;;5.20;79.70;;;;;;4977661;28;20442;-75
2021/12/09 17:45:21;;;;;;;3.47;1.83;;;5.20;79.70;;;;;;4977512;28;20470;-75
2021/12/09 17:47:52;;;;;;;2.97;1.53;;;5.20;79.70;;;;;;4977358;28;20868;-75
2021/12/09 17:50:21;;;;;;;2.90;1.33;;;5.20;80.00;;;;;;4977522;28;20492;-75
2021/12/09 17:52:51;;;;;;;5.00;1.80;;;5.10;80.30;;;;;;4977401;28;20485;-75